Preview of NWS' New Version of Forecast
This preview is not operational and should not be used for support decisions.

Terminal Aerodrome Forecast (TAF)

Issued by National Weather Service (NWS)

                            
000
FTUS42 KMFL 150537
TAFMIA
TAF
KMIA 150537Z 1506/1612 10008KT P6SM FEW025
     FM151500 10012KT P6SM SCT025
     FM160400 10008KT P6SM SKC=